sensor_id;sensor_type;location;lat;lon;timestamp;P1;durP1;ratioP1;P2;durP2;ratioP2
32196;SDS011;18697;42.770;23.400;2022-12-19T00:03:33;39.15;;;19.55;;
32196;SDS011;18697;42.770;23.400;2022-12-19T00:06:00;37.90;;;20.08;;
32196;SDS011;18697;42.770;23.400;2022-12-19T00:08:26;39.45;;;19.65;;
32196;SDS011;18697;42.770;23.400;2022-12-19T00:10:56;38.85;;;21.05;;
32196;SDS011;18697;42.770;23.400;2022-12-19T00:13:23;38.83;;;20.45;;
32196;SDS011;18697;42.770;23.400;2022-12-19T00:15:49;36.28;;;19.60;;
32196;SDS011;18697;42.770;23.400;2022-12-19T00:18:15;38.90;;;20.77;;
32196;SDS011;18697;42.770;23.400;2022-12-19T00:20:40;36.20;;;19.60;;
32196;SDS011;18697;42.770;23.400;2022-12-19T00:23:05;37.95;;;19.88;;
32196;SDS011;18697;42.770;23.400;2022-12-19T00:25:31;43.00;;;20.30;;
32196;SDS011;18697;42.770;23.400;2022-12-19T00:27:57;42.85;;;19.67;;
32196;SDS011;18697;42.770;23.400;2022-12-19T00:30:22;37.20;;;19.65;;
32196;SDS011;18697;42.770;23.400;2022-12-19T00:32:48;35.28;;;19.10;;
32196;SDS011;18697;42.770;23.400;2022-12-19T00:35:13;37.83;;;19.00;;
32196;SDS011;18697;42.770;23.400;2022-12-19T00:37:38;35.47;;;18.35;;
32196;SDS011;18697;42.770;23.400;2022-12-19T00:40:05;37.92;;;18.52;;
32196;SDS011;18697;42.770;23.400;2022-12-19T00:42:31;38.05;;;19.13;;
32196;SDS011;18697;42.770;23.400;2022-12-19T00:44:56;38.10;;;18.50;;
32196;SDS011;18697;42.770;23.400;2022-12-19T00:47:21;39.45;;;18.90;;
32196;SDS011;18697;42.770;23.400;2022-12-19T00:49:47;31.80;;;18.25;;
32196;SDS011;18697;42.770;23.400;2022-12-19T00:52:15;35.42;;;18.17;;
32196;SDS011;18697;42.770;23.400;2022-12-19T00:54:41;39.03;;;19.58;;
32196;SDS011;18697;42.770;23.400;2022-12-19T00:57:06;39.33;;;19.35;;
32196;SDS011;18697;42.770;23.400;2022-12-19T00:59:32;38.38;;;19.73;;
32196;SDS011;18697;42.770;23.400;2022-12-19T01:01:57;40.55;;;20.00;;
32196;SDS011;18697;42.770;23.400;2022-12-19T01:04:22;42.03;;;20.77;;
32196;SDS011;18697;42.770;23.400;2022-12-19T01:06:48;45.42;;;21.58;;
32196;SDS011;18697;42.770;23.400;2022-12-19T01:09:13;43.10;;;22.17;;
32196;SDS011;18697;42.770;23.400;2022-12-19T01:11:39;38.00;;;20.30;;
32196;SDS011;18697;42.770;23.400;2022-12-19T01:14:23;36.92;;;19.35;;
32196;SDS011;18697;42.770;23.400;2022-12-19T01:16:49;40.53;;;20.27;;
32196;SDS011;18697;42.770;23.400;2022-12-19T01:19:15;42.08;;;21.85;;
32196;SDS011;18697;42.770;23.400;2022-12-19T01:21:40;41.53;;;22.00;;
32196;SDS011;18697;42.770;23.400;2022-12-19T01:24:06;36.75;;;21.17;;
32196;SDS011;18697;42.770;23.400;2022-12-19T01:26:31;41.67;;;20.98;;
32196;SDS011;18697;42.770;23.400;2022-12-19T01:28:57;36.50;;;21.15;;
32196;SDS011;18697;42.770;23.400;2022-12-19T01:31:22;38.85;;;19.98;;
32196;SDS011;18697;42.770;23.400;2022-12-19T01:33:48;39.92;;;20.08;;
32196;SDS011;18697;42.770;23.400;2022-12-19T01:36:13;36.80;;;19.45;;
32196;SDS011;18697;42.770;23.400;2022-12-19T01:38:38;38.15;;;20.67;;
32196;SDS011;18697;42.770;23.400;2022-12-19T01:41:04;45.80;;;24.10;;
32196;SDS011;18697;42.770;23.400;2022-12-19T01:43:31;37.10;;;20.38;;
32196;SDS011;18697;42.770;23.400;2022-12-19T01:46:17;38.95;;;19.50;;
32196;SDS011;18697;42.770;23.400;2022-12-19T01:48:51;39.45;;;21.05;;
32196;SDS011;18697;42.770;23.400;2022-12-19T01:51:18;38.22;;;20.65;;
32196;SDS011;18697;42.770;23.400;2022-12-19T01:53:47;40.50;;;20.25;;
32196;SDS011;18697;42.770;23.400;2022-12-19T01:56:19;42.22;;;20.63;;
32196;SDS011;18697;42.770;23.400;2022-12-19T01:58:49;39.42;;;19.08;;
32196;SDS011;18697;42.770;23.400;2022-12-19T02:01:17;38.58;;;19.77;;
32196;SDS011;18697;42.770;23.400;2022-12-19T02:03:43;38.40;;;19.92;;
32196;SDS011;18697;42.770;23.400;2022-12-19T02:06:09;34.70;;;18.42;;
32196;SDS011;18697;42.770;23.400;2022-12-19T02:08:37;39.03;;;19.88;;
32196;SDS011;18697;42.770;23.400;2022-12-19T02:11:05;38.88;;;19.90;;
32196;SDS011;18697;42.770;23.400;2022-12-19T02:13:30;39.30;;;20.20;;
32196;SDS011;18697;42.770;23.400;2022-12-19T02:27:04;36.45;;;18.73;;
32196;SDS011;18697;42.770;23.400;2022-12-19T02:32:32;35.35;;;17.55;;
32196;SDS011;18697;42.770;23.400;2022-12-19T02:35:05;31.63;;;18.38;;
32196;SDS011;18697;42.770;23.400;2022-12-19T02:37:43;35.33;;;18.35;;
32196;SDS011;18697;42.770;23.400;2022-12-19T02:40:20;35.97;;;17.88;;
32196;SDS011;18697;42.770;23.400;2022-12-19T02:42:52;32.97;;;17.20;;
32196;SDS011;18697;42.770;23.400;2022-12-19T02:45:23;36.58;;;18.98;;
32196;SDS011;18697;42.770;23.400;2022-12-19T02:47:50;42.47;;;21.75;;
32196;SDS011;18697;42.770;23.400;2022-12-19T02:50:17;39.15;;;21.20;;
32196;SDS011;18697;42.770;23.400;2022-12-19T02:52:43;40.38;;;20.60;;
32196;SDS011;18697;42.770;23.400;2022-12-19T02:55:11;42.75;;;21.10;;
32196;SDS011;18697;42.770;23.400;2022-12-19T02:57:45;42.20;;;21.33;;
32196;SDS011;18697;42.770;23.400;2022-12-19T03:00:20;47.38;;;22.92;;
32196;SDS011;18697;42.770;23.400;2022-12-19T03:13:32;45.78;;;25.88;;
32196;SDS011;18697;42.770;23.400;2022-12-19T03:16:04;50.60;;;26.35;;
32196;SDS011;18697;42.770;23.400;2022-12-19T03:18:33;42.88;;;22.15;;
32196;SDS011;18697;42.770;23.400;2022-12-19T03:23:41;44.30;;;22.25;;
32196;SDS011;18697;42.770;23.400;2022-12-19T03:26:10;37.88;;;20.65;;
32196;SDS011;18697;42.770;23.400;2022-12-19T03:31:21;36.78;;;18.83;;
32196;SDS011;18697;42.770;23.400;2022-12-19T03:33:54;36.33;;;18.48;;
32196;SDS011;18697;42.770;23.400;2022-12-19T03:36:24;33.72;;;17.20;;
32196;SDS011;18697;42.770;23.400;2022-12-19T03:38:52;34.92;;;18.38;;
32196;SDS011;18697;42.770;23.400;2022-12-19T03:41:21;37.63;;;19.15;;
32196;SDS011;18697;42.770;23.400;2022-12-19T03:44:07;36.75;;;18.23;;
32196;SDS011;18697;42.770;23.400;2022-12-19T03:46:37;32.42;;;17.80;;
32196;SDS011;18697;42.770;23.400;2022-12-19T03:49:06;32.90;;;18.98;;
32196;SDS011;18697;42.770;23.400;2022-12-19T03:51:36;35.17;;;18.38;;
32196;SDS011;18697;42.770;23.400;2022-12-19T03:57:08;34.00;;;17.85;;
32196;SDS011;18697;42.770;23.400;2022-12-19T03:59:41;36.50;;;18.70;;
32196;SDS011;18697;42.770;23.400;2022-12-19T04:02:08;35.42;;;18.67;;
32196;SDS011;18697;42.770;23.400;2022-12-19T04:04:36;33.17;;;17.02;;
32196;SDS011;18697;42.770;23.400;2022-12-19T04:07:06;31.08;;;17.92;;
32196;SDS011;18697;42.770;23.400;2022-12-19T04:09:32;36.30;;;17.98;;
32196;SDS011;18697;42.770;23.400;2022-12-19T04:12:02;36.47;;;18.20;;
32196;SDS011;18697;42.770;23.400;2022-12-19T04:14:32;39.05;;;20.73;;
32196;SDS011;18697;42.770;23.400;2022-12-19T04:19:33;39.53;;;19.55;;
32196;SDS011;18697;42.770;23.400;2022-12-19T04:22:05;40.40;;;20.33;;
32196;SDS011;18697;42.770;23.400;2022-12-19T04:24:36;36.90;;;18.20;;
32196;SDS011;18697;42.770;23.400;2022-12-19T04:27:06;36.65;;;19.73;;
32196;SDS011;18697;42.770;23.400;2022-12-19T04:29:35;38.00;;;20.02;;
32196;SDS011;18697;42.770;23.400;2022-12-19T04:32:03;39.50;;;19.48;;
32196;SDS011;18697;42.770;23.400;2022-12-19T04:34:30;45.80;;;23.83;;
32196;SDS011;18697;42.770;23.400;2022-12-19T04:36:55;39.15;;;20.48;;
32196;SDS011;18697;42.770;23.400;2022-12-19T04:39:21;41.38;;;20.73;;
32196;SDS011;18697;42.770;23.400;2022-12-19T04:41:46;40.13;;;19.70;;
32196;SDS011;18697;42.770;23.400;2022-12-19T04:44:12;36.88;;;20.20;;
32196;SDS011;18697;42.770;23.400;2022-12-19T04:46:37;35.97;;;19.00;;
32196;SDS011;18697;42.770;23.400;2022-12-19T04:49:03;39.15;;;19.42;;
32196;SDS011;18697;42.770;23.400;2022-12-19T04:51:28;38.97;;;19.60;;
32196;SDS011;18697;42.770;23.400;2022-12-19T04:53:53;40.05;;;19.42;;
32196;SDS011;18697;42.770;23.400;2022-12-19T04:56:19;40.35;;;20.05;;
32196;SDS011;18697;42.770;23.400;2022-12-19T04:58:44;39.92;;;18.50;;
32196;SDS011;18697;42.770;23.400;2022-12-19T05:01:10;44.65;;;22.27;;
32196;SDS011;18697;42.770;23.400;2022-12-19T05:03:37;39.00;;;21.88;;
32196;SDS011;18697;42.770;23.400;2022-12-19T05:08:30;42.15;;;22.00;;
32196;SDS011;18697;42.770;23.400;2022-12-19T05:10:59;39.47;;;20.05;;
32196;SDS011;18697;42.770;23.400;2022-12-19T05:13:25;42.50;;;22.95;;
32196;SDS011;18697;42.770;23.400;2022-12-19T05:15:57;46.33;;;24.20;;
32196;SDS011;18697;42.770;23.400;2022-12-19T05:18:27;48.78;;;29.27;;
32196;SDS011;18697;42.770;23.400;2022-12-19T05:20:54;117.90;;;99.40;;
32196;SDS011;18697;42.770;23.400;2022-12-19T05:23:19;226.13;;;201.25;;
32196;SDS011;18697;42.770;23.400;2022-12-19T05:25:45;254.30;;;226.43;;
32196;SDS011;18697;42.770;23.400;2022-12-19T05:28:11;221.85;;;198.35;;
32196;SDS011;18697;42.770;23.400;2022-12-19T05:30:37;186.50;;;167.15;;
32196;SDS011;18697;42.770;23.400;2022-12-19T05:33:03;139.73;;;125.68;;
32196;SDS011;18697;42.770;23.400;2022-12-19T05:35:28;108.13;;;97.32;;
32196;SDS011;18697;42.770;23.400;2022-12-19T05:37:54;86.75;;;77.90;;
32196;SDS011;18697;42.770;23.400;2022-12-19T05:42:44;60.15;;;53.92;;
32196;SDS011;18697;42.770;23.400;2022-12-19T05:47:35;62.85;;;56.50;;
32196;SDS011;18697;42.770;23.400;2022-12-19T05:52:26;63.03;;;56.25;;
32196;SDS011;18697;42.770;23.400;2022-12-19T05:57:17;64.68;;;57.97;;
32196;SDS011;18697;42.770;23.400;2022-12-19T06:02:08;63.97;;;57.13;;
32196;SDS011;18697;42.770;23.400;2022-12-19T06:06:58;64.35;;;57.65;;
32196;SDS011;18697;42.770;23.400;2022-12-19T06:11:49;41.17;;;34.13;;
32196;SDS011;18697;42.770;23.400;2022-12-19T06:14:15;67.15;;;60.05;;
32196;SDS011;18697;42.770;23.400;2022-12-19T06:16:40;66.60;;;59.58;;
32196;SDS011;18697;42.770;23.400;2022-12-19T06:21:31;65.57;;;58.65;;
32196;SDS011;18697;42.770;23.400;2022-12-19T06:26:21;61.15;;;54.58;;
32196;SDS011;18697;42.770;23.400;2022-12-19T06:31:13;54.28;;;48.35;;
32196;SDS011;18697;42.770;23.400;2022-12-19T06:33:39;42.22;;;37.55;;
32196;SDS011;18697;42.770;23.400;2022-12-19T06:36:26;54.40;;;48.20;;
32196;SDS011;18697;42.770;23.400;2022-12-19T06:38:52;54.33;;;47.05;;
32196;SDS011;18697;42.770;23.400;2022-12-19T06:41:19;64.68;;;57.72;;
32196;SDS011;18697;42.770;23.400;2022-12-19T06:44:07;63.50;;;55.67;;
32196;SDS011;18697;42.770;23.400;2022-12-19T06:46:34;56.95;;;50.92;;
32196;SDS011;18697;42.770;23.400;2022-12-19T06:49:00;59.47;;;49.22;;
32196;SDS011;18697;42.770;23.400;2022-12-19T06:51:26;52.47;;;45.38;;
32196;SDS011;18697;42.770;23.400;2022-12-19T06:53:52;63.92;;;53.40;;
32196;SDS011;18697;42.770;23.400;2022-12-19T06:56:18;62.92;;;55.92;;
32196;SDS011;18697;42.770;23.400;2022-12-19T06:58:44;58.85;;;51.97;;
32196;SDS011;18697;42.770;23.400;2022-12-19T07:04:09;51.70;;;45.97;;
32196;SDS011;18697;42.770;23.400;2022-12-19T07:06:39;46.35;;;39.10;;
32196;SDS011;18697;42.770;23.400;2022-12-19T07:09:05;43.83;;;33.83;;
32196;SDS011;18697;42.770;23.400;2022-12-19T07:11:30;44.42;;;33.38;;
32196;SDS011;18697;42.770;23.400;2022-12-19T07:13:55;45.13;;;32.67;;
32196;SDS011;18697;42.770;23.400;2022-12-19T07:16:21;42.22;;;35.28;;
32196;SDS011;18697;42.770;23.400;2022-12-19T07:18:49;42.08;;;35.42;;
32196;SDS011;18697;42.770;23.400;2022-12-19T07:21:14;41.17;;;34.13;;
32196;SDS011;18697;42.770;23.400;2022-12-19T07:23:41;38.05;;;33.38;;
32196;SDS011;18697;42.770;23.400;2022-12-19T07:26:07;35.33;;;29.23;;
32196;SDS011;18697;42.770;23.400;2022-12-19T07:28:33;39.88;;;32.58;;
32196;SDS011;18697;42.770;23.400;2022-12-19T07:30:59;40.35;;;32.15;;
32196;SDS011;18697;42.770;23.400;2022-12-19T07:33:25;38.70;;;33.53;;
32196;SDS011;18697;42.770;23.400;2022-12-19T07:35:50;41.97;;;30.83;;
32196;SDS011;18697;42.770;23.400;2022-12-19T07:40:41;38.30;;;31.33;;
32196;SDS011;18697;42.770;23.400;2022-12-19T07:43:07;39.63;;;29.95;;
32196;SDS011;18697;42.770;23.400;2022-12-19T07:47:58;38.28;;;31.40;;
32196;SDS011;18697;42.770;23.400;2022-12-19T07:50:25;36.65;;;29.27;;
32196;SDS011;18697;42.770;23.400;2022-12-19T07:52:50;39.70;;;28.17;;
32196;SDS011;18697;42.770;23.400;2022-12-19T07:57:41;38.92;;;28.58;;
32196;SDS011;18697;42.770;23.400;2022-12-19T08:02:32;35.63;;;26.63;;
32196;SDS011;18697;42.770;23.400;2022-12-19T08:07:23;41.03;;;26.35;;
32196;SDS011;18697;42.770;23.400;2022-12-19T08:09:48;49.67;;;28.77;;
32196;SDS011;18697;42.770;23.400;2022-12-19T08:12:13;66.78;;;33.45;;
32196;SDS011;18697;42.770;23.400;2022-12-19T08:17:04;69.03;;;34.65;;
32196;SDS011;18697;42.770;23.400;2022-12-19T08:21:55;69.55;;;36.78;;
32196;SDS011;18697;42.770;23.400;2022-12-19T08:26:45;54.78;;;32.53;;
32196;SDS011;18697;42.770;23.400;2022-12-19T08:31:36;54.63;;;31.23;;
32196;SDS011;18697;42.770;23.400;2022-12-19T08:34:02;87.78;;;48.22;;
32196;SDS011;18697;42.770;23.400;2022-12-19T08:36:27;137.80;;;64.75;;
32196;SDS011;18697;42.770;23.400;2022-12-19T08:38:53;114.70;;;57.75;;
32196;SDS011;18697;42.770;23.400;2022-12-19T08:41:18;65.93;;;39.00;;
32196;SDS011;18697;42.770;23.400;2022-12-19T08:46:16;61.67;;;35.33;;
32196;SDS011;18697;42.770;23.400;2022-12-19T08:48:43;57.38;;;32.55;;
32196;SDS011;18697;42.770;23.400;2022-12-19T08:53:35;46.43;;;26.33;;
32196;SDS011;18697;42.770;23.400;2022-12-19T08:56:03;53.92;;;31.30;;
32196;SDS011;18697;42.770;23.400;2022-12-19T08:58:35;55.17;;;33.13;;
32196;SDS011;18697;42.770;23.400;2022-12-19T09:01:10;54.03;;;30.48;;
32196;SDS011;18697;42.770;23.400;2022-12-19T09:03:38;60.55;;;39.75;;
32196;SDS011;18697;42.770;23.400;2022-12-19T09:06:05;80.03;;;55.88;;
32196;SDS011;18697;42.770;23.400;2022-12-19T09:08:32;49.35;;;28.10;;
32196;SDS011;18697;42.770;23.400;2022-12-19T09:11:00;55.55;;;34.92;;
32196;SDS011;18697;42.770;23.400;2022-12-19T09:13:28;83.35;;;62.83;;
32196;SDS011;18697;42.770;23.400;2022-12-19T09:18:45;68.68;;;46.35;;
32196;SDS011;18697;42.770;23.400;2022-12-19T09:21:12;54.80;;;35.00;;
32196;SDS011;18697;42.770;23.400;2022-12-19T09:23:39;66.50;;;45.92;;
32196;SDS011;18697;42.770;23.400;2022-12-19T09:26:09;71.13;;;55.00;;
32196;SDS011;18697;42.770;23.400;2022-12-19T09:28:36;49.92;;;28.10;;
32196;SDS011;18697;42.770;23.400;2022-12-19T09:31:04;40.88;;;23.85;;
32196;SDS011;18697;42.770;23.400;2022-12-19T09:33:36;49.38;;;25.77;;
32196;SDS011;18697;42.770;23.400;2022-12-19T09:36:02;72.32;;;48.30;;
32196;SDS011;18697;42.770;23.400;2022-12-19T09:38:29;80.03;;;46.90;;
32196;SDS011;18697;42.770;23.400;2022-12-19T09:41:09;67.00;;;35.25;;
32196;SDS011;18697;42.770;23.400;2022-12-19T09:51:58;46.72;;;24.73;;
32196;SDS011;18697;42.770;23.400;2022-12-19T09:54:36;69.80;;;45.45;;
32196;SDS011;18697;42.770;23.400;2022-12-19T09:57:09;59.40;;;37.33;;
32196;SDS011;18697;42.770;23.400;2022-12-19T09:59:40;46.08;;;26.20;;
32196;SDS011;18697;42.770;23.400;2022-12-19T10:02:19;59.53;;;38.13;;
32196;SDS011;18697;42.770;23.400;2022-12-19T10:05:03;43.58;;;24.95;;
32196;SDS011;18697;42.770;23.400;2022-12-19T10:07:42;49.83;;;27.45;;
32196;SDS011;18697;42.770;23.400;2022-12-19T10:10:12;44.50;;;22.85;;
32196;SDS011;18697;42.770;23.400;2022-12-19T10:21:01;53.00;;;32.67;;
32196;SDS011;18697;42.770;23.400;2022-12-19T10:23:50;53.10;;;31.20;;
32196;SDS011;18697;42.770;23.400;2022-12-19T10:26:21;51.92;;;26.55;;
32196;SDS011;18697;42.770;23.400;2022-12-19T10:29:13;47.75;;;30.75;;
32196;SDS011;18697;42.770;23.400;2022-12-19T10:34:33;45.38;;;24.65;;
32196;SDS011;18697;42.770;23.400;2022-12-19T10:37:11;43.80;;;26.77;;
32196;SDS011;18697;42.770;23.400;2022-12-19T10:39:49;42.50;;;27.75;;
32196;SDS011;18697;42.770;23.400;2022-12-19T10:45:36;41.15;;;26.02;;
32196;SDS011;18697;42.770;23.400;2022-12-19T10:48:07;40.17;;;21.38;;
32196;SDS011;18697;42.770;23.400;2022-12-19T10:50:39;43.08;;;28.15;;
32196;SDS011;18697;42.770;23.400;2022-12-19T10:53:08;51.60;;;33.10;;
32196;SDS011;18697;42.770;23.400;2022-12-19T11:03:50;43.08;;;29.05;;
32196;SDS011;18697;42.770;23.400;2022-12-19T11:11:45;32.10;;;17.05;;
32196;SDS011;18697;42.770;23.400;2022-12-19T11:14:22;35.97;;;21.13;;
32196;SDS011;18697;42.770;23.400;2022-12-19T11:16:49;34.92;;;20.17;;
32196;SDS011;18697;42.770;23.400;2022-12-19T11:19:19;35.10;;;22.10;;
32196;SDS011;18697;42.770;23.400;2022-12-19T11:21:46;31.75;;;20.08;;
32196;SDS011;18697;42.770;23.400;2022-12-19T11:24:17;26.33;;;17.15;;
32196;SDS011;18697;42.770;23.400;2022-12-19T11:26:48;45.65;;;27.95;;
32196;SDS011;18697;42.770;23.400;2022-12-19T11:29:24;34.08;;;20.77;;
32196;SDS011;18697;42.770;23.400;2022-12-19T11:31:59;35.45;;;21.42;;
32196;SDS011;18697;42.770;23.400;2022-12-19T11:34:27;36.70;;;21.05;;
32196;SDS011;18697;42.770;23.400;2022-12-19T11:36:55;24.23;;;14.15;;
32196;SDS011;18697;42.770;23.400;2022-12-19T11:42:20;33.15;;;17.58;;
32196;SDS011;18697;42.770;23.400;2022-12-19T11:50:30;27.33;;;17.00;;
32196;SDS011;18697;42.770;23.400;2022-12-19T11:55:52;34.55;;;15.48;;
32196;SDS011;18697;42.770;23.400;2022-12-19T11:58:23;32.47;;;15.68;;
32196;SDS011;18697;42.770;23.400;2022-12-19T12:00:56;44.90;;;20.38;;
32196;SDS011;18697;42.770;23.400;2022-12-19T12:06:17;26.23;;;14.93;;
32196;SDS011;18697;42.770;23.400;2022-12-19T12:14:19;33.75;;;16.67;;
32196;SDS011;18697;42.770;23.400;2022-12-19T12:16:58;26.20;;;13.88;;
32196;SDS011;18697;42.770;23.400;2022-12-19T12:30:01;24.48;;;14.38;;
32196;SDS011;18697;42.770;23.400;2022-12-19T12:35:44;23.80;;;12.73;;
32196;SDS011;18697;42.770;23.400;2022-12-19T12:41:40;22.75;;;13.13;;
32196;SDS011;18697;42.770;23.400;2022-12-19T12:44:27;45.65;;;25.50;;
32196;SDS011;18697;42.770;23.400;2022-12-19T12:47:12;33.90;;;18.52;;
32196;SDS011;18697;42.770;23.400;2022-12-19T12:49:42;35.10;;;18.08;;
32196;SDS011;18697;42.770;23.400;2022-12-19T12:52:46;27.38;;;15.55;;
32196;SDS011;18697;42.770;23.400;2022-12-19T12:55:14;36.65;;;19.35;;
32196;SDS011;18697;42.770;23.400;2022-12-19T12:57:44;32.35;;;15.70;;
32196;SDS011;18697;42.770;23.400;2022-12-19T13:00:14;29.52;;;15.48;;
32196;SDS011;18697;42.770;23.400;2022-12-19T13:05:50;28.00;;;14.90;;
32196;SDS011;18697;42.770;23.400;2022-12-19T13:10:56;27.45;;;14.15;;
32196;SDS011;18697;42.770;23.400;2022-12-19T13:19:13;55.88;;;23.83;;
32196;SDS011;18697;42.770;23.400;2022-12-19T13:25:00;23.35;;;14.05;;
32196;SDS011;18697;42.770;23.400;2022-12-19T13:27:32;121.45;;;38.65;;
32196;SDS011;18697;42.770;23.400;2022-12-19T13:32:31;29.35;;;17.10;;
32196;SDS011;18697;42.770;23.400;2022-12-19T13:37:49;28.15;;;15.55;;
32196;SDS011;18697;42.770;23.400;2022-12-19T13:40:23;27.58;;;16.52;;
32196;SDS011;18697;42.770;23.400;2022-12-19T13:45:52;25.92;;;15.20;;
32196;SDS011;18697;42.770;23.400;2022-12-19T13:48:28;61.38;;;22.25;;
32196;SDS011;18697;42.770;23.400;2022-12-19T13:51:05;20.60;;;12.27;;
32196;SDS011;18697;42.770;23.400;2022-12-19T13:53:32;28.80;;;15.18;;
32196;SDS011;18697;42.770;23.400;2022-12-19T14:03:43;27.83;;;16.05;;
32196;SDS011;18697;42.770;23.400;2022-12-19T14:06:23;27.90;;;16.10;;
32196;SDS011;18697;42.770;23.400;2022-12-19T14:08:51;28.35;;;15.27;;
32196;SDS011;18697;42.770;23.400;2022-12-19T14:11:20;29.23;;;17.05;;
32196;SDS011;18697;42.770;23.400;2022-12-19T14:13:46;31.75;;;17.58;;
32196;SDS011;18697;42.770;23.400;2022-12-19T14:16:33;37.53;;;19.77;;
32196;SDS011;18697;42.770;23.400;2022-12-19T14:19:01;34.00;;;19.63;;
32196;SDS011;18697;42.770;23.400;2022-12-19T14:21:27;40.22;;;21.83;;
32196;SDS011;18697;42.770;23.400;2022-12-19T14:24:12;34.58;;;19.70;;
32196;SDS011;18697;42.770;23.400;2022-12-19T14:26:41;37.05;;;21.15;;
32196;SDS011;18697;42.770;23.400;2022-12-19T14:29:11;50.63;;;24.27;;
32196;SDS011;18697;42.770;23.400;2022-12-19T14:31:41;35.30;;;18.75;;
32196;SDS011;18697;42.770;23.400;2022-12-19T14:34:09;61.85;;;39.17;;
32196;SDS011;18697;42.770;23.400;2022-12-19T14:36:47;56.42;;;30.35;;
32196;SDS011;18697;42.770;23.400;2022-12-19T14:39:16;38.03;;;22.25;;
32196;SDS011;18697;42.770;23.400;2022-12-19T14:41:44;43.47;;;23.33;;
32196;SDS011;18697;42.770;23.400;2022-12-19T14:44:44;54.47;;;25.83;;
32196;SDS011;18697;42.770;23.400;2022-12-19T14:47:11;53.40;;;26.38;;
32196;SDS011;18697;42.770;23.400;2022-12-19T14:49:57;33.35;;;18.65;;
32196;SDS011;18697;42.770;23.400;2022-12-19T14:52:39;39.28;;;20.45;;
32196;SDS011;18697;42.770;23.400;2022-12-19T14:57:52;45.95;;;24.73;;
32196;SDS011;18697;42.770;23.400;2022-12-19T15:02:49;39.75;;;20.27;;
32196;SDS011;18697;42.770;23.400;2022-12-19T15:05:15;35.97;;;20.20;;
32196;SDS011;18697;42.770;23.400;2022-12-19T15:07:44;41.85;;;23.00;;
32196;SDS011;18697;42.770;23.400;2022-12-19T15:10:14;44.30;;;25.83;;
32196;SDS011;18697;42.770;23.400;2022-12-19T15:13:01;41.90;;;23.05;;
32196;SDS011;18697;42.770;23.400;2022-12-19T15:20:58;42.17;;;23.40;;
32196;SDS011;18697;42.770;23.400;2022-12-19T15:23:26;51.28;;;26.48;;
32196;SDS011;18697;42.770;23.400;2022-12-19T15:25:52;47.55;;;25.58;;
32196;SDS011;18697;42.770;23.400;2022-12-19T15:28:35;46.75;;;25.23;;
32196;SDS011;18697;42.770;23.400;2022-12-19T15:31:02;53.35;;;25.65;;
32196;SDS011;18697;42.770;23.400;2022-12-19T15:33:33;58.05;;;26.63;;
32196;SDS011;18697;42.770;23.400;2022-12-19T15:35:59;46.70;;;24.58;;
32196;SDS011;18697;42.770;23.400;2022-12-19T15:38:24;51.80;;;25.38;;
32196;SDS011;18697;42.770;23.400;2022-12-19T15:40:49;74.68;;;34.97;;
32196;SDS011;18697;42.770;23.400;2022-12-19T15:43:21;68.15;;;31.90;;
32196;SDS011;18697;42.770;23.400;2022-12-19T15:45:48;65.05;;;30.70;;
32196;SDS011;18697;42.770;23.400;2022-12-19T15:48:19;116.68;;;52.70;;
32196;SDS011;18697;42.770;23.400;2022-12-19T15:50:45;44.83;;;27.25;;
32196;SDS011;18697;42.770;23.400;2022-12-19T15:53:25;60.83;;;36.97;;
32196;SDS011;18697;42.770;23.400;2022-12-19T15:55:53;30.30;;;16.27;;
32196;SDS011;18697;42.770;23.400;2022-12-19T15:58:21;32.55;;;17.92;;
32196;SDS011;18697;42.770;23.400;2022-12-19T16:00:50;41.03;;;21.58;;
32196;SDS011;18697;42.770;23.400;2022-12-19T16:03:18;45.20;;;22.63;;
32196;SDS011;18697;42.770;23.400;2022-12-19T16:05:44;52.45;;;24.90;;
32196;SDS011;18697;42.770;23.400;2022-12-19T16:08:11;46.40;;;26.58;;
32196;SDS011;18697;42.770;23.400;2022-12-19T16:10:40;52.05;;;28.98;;
32196;SDS011;18697;42.770;23.400;2022-12-19T16:13:10;45.83;;;27.30;;
32196;SDS011;18697;42.770;23.400;2022-12-19T16:15:43;49.97;;;29.27;;
32196;SDS011;18697;42.770;23.400;2022-12-19T16:18:08;55.55;;;28.65;;
32196;SDS011;18697;42.770;23.400;2022-12-19T16:20:37;40.10;;;25.75;;
32196;SDS011;18697;42.770;23.400;2022-12-19T16:23:04;43.90;;;24.77;;
32196;SDS011;18697;42.770;23.400;2022-12-19T16:26:03;49.30;;;24.67;;
32196;SDS011;18697;42.770;23.400;2022-12-19T16:28:30;48.08;;;22.83;;
32196;SDS011;18697;42.770;23.400;2022-12-19T16:30:58;46.20;;;24.63;;
32196;SDS011;18697;42.770;23.400;2022-12-19T16:33:25;52.70;;;25.08;;
32196;SDS011;18697;42.770;23.400;2022-12-19T16:35:53;43.15;;;23.45;;
32196;SDS011;18697;42.770;23.400;2022-12-19T16:38:19;60.72;;;28.50;;
32196;SDS011;18697;42.770;23.400;2022-12-19T16:40:45;57.20;;;28.42;;
32196;SDS011;18697;42.770;23.400;2022-12-19T16:43:13;55.20;;;27.30;;
32196;SDS011;18697;42.770;23.400;2022-12-19T16:45:39;109.00;;;43.13;;
32196;SDS011;18697;42.770;23.400;2022-12-19T16:48:18;101.30;;;44.55;;
32196;SDS011;18697;42.770;23.400;2022-12-19T16:50:45;63.08;;;31.10;;
32196;SDS011;18697;42.770;23.400;2022-12-19T16:53:12;46.65;;;22.17;;
32196;SDS011;18697;42.770;23.400;2022-12-19T16:55:38;80.22;;;32.63;;
32196;SDS011;18697;42.770;23.400;2022-12-19T16:58:05;57.75;;;28.65;;
32196;SDS011;18697;42.770;23.400;2022-12-19T17:00:31;60.33;;;37.20;;
32196;SDS011;18697;42.770;23.400;2022-12-19T17:03:35;43.63;;;22.00;;
32196;SDS011;18697;42.770;23.400;2022-12-19T17:06:14;46.50;;;21.10;;
32196;SDS011;18697;42.770;23.400;2022-12-19T17:08:42;48.95;;;28.40;;
32196;SDS011;18697;42.770;23.400;2022-12-19T17:11:14;39.70;;;20.67;;
32196;SDS011;18697;42.770;23.400;2022-12-19T17:13:42;42.30;;;22.65;;
32196;SDS011;18697;42.770;23.400;2022-12-19T17:16:10;44.50;;;29.05;;
32196;SDS011;18697;42.770;23.400;2022-12-19T17:18:37;57.95;;;31.98;;
32196;SDS011;18697;42.770;23.400;2022-12-19T17:21:04;62.85;;;32.85;;
32196;SDS011;18697;42.770;23.400;2022-12-19T17:25:56;55.50;;;29.92;;
32196;SDS011;18697;42.770;23.400;2022-12-19T17:28:24;46.53;;;26.13;;
32196;SDS011;18697;42.770;23.400;2022-12-19T17:30:50;56.05;;;32.85;;
32196;SDS011;18697;42.770;23.400;2022-12-19T17:33:21;84.03;;;39.10;;
32196;SDS011;18697;42.770;23.400;2022-12-19T17:35:50;68.80;;;42.10;;
32196;SDS011;18697;42.770;23.400;2022-12-19T17:38:15;74.15;;;45.17;;
32196;SDS011;18697;42.770;23.400;2022-12-19T17:40:42;69.10;;;40.25;;
32196;SDS011;18697;42.770;23.400;2022-12-19T17:43:09;57.95;;;36.97;;
32196;SDS011;18697;42.770;23.400;2022-12-19T17:45:35;57.25;;;37.30;;
32196;SDS011;18697;42.770;23.400;2022-12-19T17:48:02;93.63;;;56.53;;
32196;SDS011;18697;42.770;23.400;2022-12-19T17:50:39;74.13;;;41.35;;
32196;SDS011;18697;42.770;23.400;2022-12-19T17:53:08;90.25;;;56.53;;
32196;SDS011;18697;42.770;23.400;2022-12-19T17:55:37;75.70;;;40.53;;